Aviation Digital Data Service (ADDS)

Output produced by METARs form (0833 UTC 17 November 2018)
found at http://www.aviationweather.gov/metar/data/
 
TAF MPPA 162300Z 1700/1806 35006KT 9999 FEW018 
     TEMPO 1706/1710 00000KT
       
TAF MPDA 162300Z 1700/1712 21006KT 9999 FEW018 
     TEMPO 1706/1710 00000KT
       
TAF MPMG 162300Z 1700/1712 31006KT 9999 FEW018 
     TEMPO 1706/1710 00000KT
       
TAF MPTO 170500Z 1706/1812 29005KT 9999 SCT018 
     PROB30 
     TEMPO 1718/1722 17006KT 6000 SHRA SCT016CB BKN090